Boyne City, MI (49712)

6:33 PM EDT on August 23, 2016 (GMT -0400)
Sleepy Fawn Apartments | | Change Station
Active Advisory: Beach Hazard Statement

Elev 682 ft 45.18 °N, 84.91 °W | Updated 26 seconds ago

Clear
Clear
84.6 °F
Feels Like 86 °F
N
4.0
Wind Variable Wind from NE

Today
High -- | Low -- °F
--% Chance of Precip.
Yesterday
High -- | Low -- °F
Precip. -- in
Pressure 30.13 in
Visibility 10.0 miles
Clouds Clear
Heat Index 86 °F
Dew Point 64 °F
Humidity 50%
Rainfall 0.29 in
Snow Depth Not available.
6:51 AM 8:32 PM
Waning Gibbous, 64% visible
METAR KCVX 232215Z AUTO 22010KT 10SM CLR 27/15 A3013 RMK AO2 T02650152
Pressure 30.13 in
Visibility 10.0 miles
Clouds Clear
Heat Index 86 °F
Dew Point 64 °F
Humidity 50%
Rainfall 0.29 in
Snow Depth Not available.
6:51 AM 8:32 PM
Waning Gibbous, 64% visible
METAR KCVX 232215Z AUTO 22010KT 10SM CLR 27/15 A3013 RMK AO2 T02650152

10-Day Weather Forecast

Almanac

Astronomy

Aug. 23, 2016 Rise Set
Actual Time
Civil Twilight
Nautical Twilight
Astronomical Twilight
Moon
Length of Visible Light
Length of Day
Tomorrow will be .
, % of the Moon is Illuminated

Today's Extremes

State Highs State Lows

Community

WunderPhotos

Upload Photos

1,934,486 photos uploaded!

WunderBlog® & News

Nearby

Air Quality

  Air Quality AQ Index Pollutant
Not available.

Snow Depth

Station Depth Elevation

Earthquake Activity

City Distance Mag. Time & Date
Minimum magnitude displayed is 2.5.

Coastal Water Temperatures

Place Temperature

Stations

Nearby Weather Stations

Station Location Temp. Windchill Dew Point Humidity Wind Precip. Elev Updated Type
                   

Watches & Warnings

Beach Hazard Statement
Issued: 3:48 PM EDT Aug. 23, 2016 – National Weather Service

... Beach hazards statement remains in effect through late
tonight...

* hazards... high waves and dangerous currents.

* Timing... today and tonight.

* Location... Lake Michigan beaches of northwest lower and
eastern Upper Michigan.

* Potential impacts... hazardous swimming conditions.

Precautionary/preparedness actions...

A high swim risk means life threatening waves and currents are
expected. Stay out of the water and stay away from dangerous
areas like piers and breakwalls.